createdAt,value
2023-01-09T00:00:22.963Z,964.71
2023-01-09T00:00:54.854Z,964.71
2023-01-09T00:01:26.026Z,964.92
2023-01-09T00:01:58.776Z,964.92
2023-01-09T00:02:29.880Z,964.61
2023-01-09T00:03:02.772Z,964.61
2023-01-09T00:03:33.938Z,964.81
2023-01-09T00:04:06.828Z,964.92
2023-01-09T00:04:37.807Z,964.92
2023-01-09T00:05:10.929Z,964.81
2023-01-09T00:05:41.786Z,964.81
2023-01-09T00:06:14.720Z,964.71
2023-01-09T00:06:45.822Z,964.71
2023-01-09T00:07:18.827Z,964.71
2023-01-09T00:07:49.831Z,964.71
2023-01-09T00:08:22.619Z,964.81
2023-01-09T00:08:54.052Z,964.81
2023-01-09T00:09:26.916Z,964.81
2023-01-09T00:09:57.781Z,964.81
2023-01-09T00:10:31.189Z,964.81
2023-01-09T00:11:01.954Z,964.81
2023-01-09T00:11:34.707Z,964.92
2023-01-09T00:12:05.754Z,964.61
2023-01-09T00:12:38.853Z,964.61
2023-01-09T00:13:09.782Z,964.71
2023-01-09T00:13:42.763Z,964.71
2023-01-09T00:14:13.840Z,964.61
2023-01-09T00:14:46.775Z,964.61
2023-01-09T00:15:18.799Z,964.71
2023-01-09T00:15:51.078Z,964.71
2023-01-09T00:16:22.068Z,964.71
2023-01-09T00:16:54.887Z,964.71
2023-01-09T00:17:25.790Z,964.61
2023-01-09T00:17:58.691Z,964.61
2023-01-09T00:18:30.010Z,964.61
2023-01-09T00:19:02.677Z,964.61
2023-01-09T00:19:33.864Z,964.41
2023-01-09T00:20:06.939Z,964.51
2023-01-09T00:20:37.820Z,964.51
2023-01-09T00:21:10.724Z,964.71
2023-01-09T00:21:41.843Z,964.71
2023-01-09T00:22:14.854Z,964.71
2023-01-09T00:22:45.808Z,964.71
2023-01-09T00:23:01.989Z,964.71
2023-01-09T00:23:33.910Z,964.61
2023-01-09T00:24:05.845Z,964.34
2023-01-09T00:24:37.907Z,964.34
2023-01-09T00:25:10.029Z,964.51
2023-01-09T00:25:42.793Z,964.51
2023-01-09T00:26:13.889Z,964.41
2023-01-09T00:26:46.536Z,964.41
2023-01-09T00:27:17.738Z,964.34
2023-01-09T00:27:50.612Z,964.34
2023-01-09T00:28:21.963Z,964.51
2023-01-09T00:28:54.907Z,964.51
2023-01-09T00:29:25.795Z,964.41
2023-01-09T00:29:58.705Z,964.41
2023-01-09T00:30:30.999Z,964.41
2023-01-09T00:31:02.902Z,964.41
2023-01-09T00:31:33.958Z,964.41
2023-01-09T00:32:07.012Z,964.34
2023-01-09T00:32:37.785Z,964.34
2023-01-09T00:33:10.762Z,964.24
2023-01-09T00:33:41.875Z,964.24
2023-01-09T00:34:14.958Z,964.61
2023-01-09T00:34:45.895Z,964.61
2023-01-09T00:35:18.982Z,964.34
2023-01-09T00:35:49.992Z,964.34
2023-01-09T00:36:22.741Z,964.51
2023-01-09T00:36:53.848Z,964.51
2023-01-09T00:37:26.886Z,964.34
2023-01-09T00:37:57.699Z,964.34
2023-01-09T00:38:30.600Z,964.51
2023-01-09T00:39:01.985Z,964.51
2023-01-09T00:39:34.806Z,964.34
2023-01-09T00:40:06.159Z,964.41
2023-01-09T00:40:38.613Z,964.41
2023-01-09T00:41:09.858Z,964.24
2023-01-09T00:41:42.569Z,964.24
2023-01-09T00:42:13.843Z,964.34
2023-01-09T00:42:46.653Z,964.34
2023-01-09T00:43:17.887Z,964.41
2023-01-09T00:43:50.575Z,964.41
2023-01-09T00:44:21.665Z,964.24
2023-01-09T00:44:54.657Z,964.24
2023-01-09T00:45:26.782Z,964.41
2023-01-09T00:45:58.756Z,964.41
2023-01-09T00:46:29.718Z,964.24
2023-01-09T00:47:02.716Z,964.24
2023-01-09T00:47:33.637Z,964.24
2023-01-09T00:48:06.775Z,964.41
2023-01-09T00:48:37.814Z,964.41
2023-01-09T00:49:10.692Z,964.51
2023-01-09T00:49:41.818Z,964.51
2023-01-09T00:50:15.061Z,964.24
2023-01-09T00:50:45.928Z,964.24
2023-01-09T00:51:18.903Z,964.24
2023-01-09T00:51:49.864Z,964.24
2023-01-09T00:52:22.961Z,963.93
2023-01-09T00:52:53.694Z,963.93
2023-01-09T00:53:26.708Z,964.04
2023-01-09T00:53:57.818Z,964.04
2023-01-09T00:54:30.742Z,964.24
2023-01-09T00:55:02.248Z,964.24
2023-01-09T00:55:34.687Z,964.24
2023-01-09T00:56:05.941Z,964.34
2023-01-09T00:56:38.464Z,964.34
2023-01-09T00:57:09.863Z,964.14
2023-01-09T00:57:42.767Z,964.14
2023-01-09T00:58:13.831Z,964.24
2023-01-09T00:58:46.656Z,964.24
2023-01-09T00:59:17.923Z,964.24
2023-01-09T00:59:50.788Z,964.24
2023-01-09T01:00:22.862Z,964.14
2023-01-09T01:00:55.071Z,964.14
2023-01-09T01:01:25.961Z,964.14
2023-01-09T01:01:59.078Z,964.14
2023-01-09T01:02:29.954Z,964.14
2023-01-09T01:03:02.842Z,964.14
2023-01-09T01:03:34.065Z,964.04
2023-01-09T01:04:06.501Z,964.04
2023-01-09T01:04:37.928Z,964.04
2023-01-09T01:05:11.148Z,964.24
2023-01-09T01:05:41.874Z,964.24
2023-01-09T01:06:14.831Z,964.34
2023-01-09T01:06:45.901Z,964.34
2023-01-09T01:07:18.945Z,964.14
2023-01-09T01:07:49.872Z,964.14
2023-01-09T01:08:22.992Z,964.14
2023-01-09T01:08:54.000Z,964.14
2023-01-09T01:09:26.676Z,964.14
2023-01-09T01:09:57.823Z,964.14
2023-01-09T01:10:30.996Z,964.14
2023-01-09T01:11:01.983Z,964.14
2023-01-09T01:11:34.661Z,964.14
2023-01-09T01:12:05.789Z,964.24
2023-01-09T01:12:38.768Z,964.24
2023-01-09T01:13:09.660Z,964.34
2023-01-09T01:13:42.561Z,964.34
2023-01-09T01:14:13.831Z,964.14
2023-01-09T01:14:46.674Z,964.14
2023-01-09T01:15:18.829Z,964.04
2023-01-09T01:15:50.732Z,964.04
2023-01-09T01:16:22.078Z,964.14
2023-01-09T01:16:54.549Z,964.14
2023-01-09T01:17:25.781Z,964.14
2023-01-09T01:17:58.802Z,964.14
2023-01-09T01:18:29.892Z,964.24
2023-01-09T01:19:02.571Z,964.24
2023-01-09T01:19:33.809Z,964.14
2023-01-09T01:20:06.867Z,964.04
2023-01-09T01:20:37.787Z,964.04
2023-01-09T01:21:10.621Z,964.04
2023-01-09T01:21:41.951Z,964.04
2023-01-09T01:22:14.655Z,964.14
2023-01-09T01:22:45.821Z,964.14
2023-01-09T01:23:18.620Z,964.24
2023-01-09T01:23:49.819Z,964.24
2023-01-09T01:24:22.379Z,964.14
2023-01-09T01:24:53.735Z,964.14
2023-01-09T01:25:26.970Z,964.04
2023-01-09T01:25:57.843Z,964.04
2023-01-09T01:26:30.452Z,964.14
2023-01-09T01:27:01.772Z,964.14
2023-01-09T01:27:34.759Z,964.04
2023-01-09T01:28:05.729Z,964.14
2023-01-09T01:28:38.314Z,964.14
2023-01-09T01:29:09.692Z,964.34
2023-01-09T01:29:42.506Z,964.34
2023-01-09T01:30:14.601Z,964.04
2023-01-09T01:30:46.971Z,964.04
2023-01-09T01:31:18.109Z,964.24
2023-01-09T01:31:50.493Z,964.24
2023-01-09T01:32:21.907Z,964.24
2023-01-09T01:32:54.869Z,964.24
2023-01-09T01:33:25.949Z,964.14
2023-01-09T01:33:58.519Z,964.14
2023-01-09T01:34:29.888Z,963.93
2023-01-09T01:35:03.070Z,963.93
2023-01-09T01:35:33.757Z,963.73
2023-01-09T01:36:06.585Z,963.83
2023-01-09T01:36:37.847Z,963.83
2023-01-09T01:37:10.590Z,963.93
2023-01-09T01:37:41.824Z,963.93
2023-01-09T01:38:14.746Z,964.14
2023-01-09T01:38:45.968Z,964.14
2023-01-09T01:39:18.470Z,964.14
2023-01-09T01:39:49.837Z,964.14
2023-01-09T01:40:23.001Z,963.83
2023-01-09T01:40:53.781Z,963.83
2023-01-09T01:41:26.517Z,963.93
2023-01-09T01:41:57.725Z,963.93
2023-01-09T01:42:36.176Z,963.83
2023-01-09T01:43:01.743Z,963.83
2023-01-09T01:43:33.701Z,963.83
2023-01-09T01:44:06.545Z,963.73
2023-01-09T01:44:37.840Z,963.73
2023-01-09T01:45:11.352Z,963.83
2023-01-09T01:45:41.903Z,963.83
2023-01-09T01:46:14.667Z,963.93
2023-01-09T01:46:45.691Z,963.93
2023-01-09T01:47:01.847Z,963.93
2023-01-09T01:47:33.643Z,963.93
2023-01-09T01:48:05.674Z,963.73
2023-01-09T01:48:37.651Z,963.73
2023-01-09T01:49:09.824Z,963.83
2023-01-09T01:49:41.778Z,963.83
2023-01-09T01:50:14.194Z,963.83
2023-01-09T01:50:45.594Z,963.83
2023-01-09T01:51:17.805Z,963.73
2023-01-09T01:51:50.632Z,963.73
2023-01-09T01:52:21.990Z,963.73
2023-01-09T01:52:54.793Z,963.73
2023-01-09T01:53:25.892Z,963.83
2023-01-09T01:53:58.735Z,963.83
2023-01-09T01:54:29.980Z,963.83
2023-01-09T01:55:02.890Z,963.83
2023-01-09T01:55:33.907Z,963.83
2023-01-09T01:56:06.852Z,963.73
2023-01-09T01:56:37.808Z,963.73
2023-01-09T01:57:10.779Z,963.53
2023-01-09T01:57:41.921Z,963.53
2023-01-09T01:58:14.719Z,963.53
2023-01-09T01:58:45.781Z,963.53
2023-01-09T01:59:18.521Z,963.73
2023-01-09T01:59:49.921Z,963.73
2023-01-09T02:00:23.852Z,963.73
2023-01-09T02:00:53.993Z,963.73
2023-01-09T02:01:26.823Z,963.93
2023-01-09T02:01:57.897Z,963.93
2023-01-09T02:02:30.907Z,963.63
2023-01-09T02:03:01.917Z,963.63
2023-01-09T02:03:34.680Z,963.53
2023-01-09T02:04:05.837Z,963.73
2023-01-09T02:04:38.666Z,963.73
2023-01-09T02:05:10.187Z,963.83
2023-01-09T02:05:42.632Z,963.83
2023-01-09T02:06:13.647Z,963.83
2023-01-09T02:06:46.614Z,963.83
2023-01-09T02:07:17.721Z,963.63
2023-01-09T02:07:50.732Z,963.63
2023-01-09T02:08:21.540Z,963.73
2023-01-09T02:08:54.644Z,963.73
2023-01-09T02:09:25.657Z,963.73
2023-01-09T02:09:58.511Z,963.73
2023-01-09T02:10:30.076Z,963.63
2023-01-09T02:11:02.480Z,963.63
2023-01-09T02:11:33.743Z,963.73
2023-01-09T02:12:07.002Z,963.83
2023-01-09T02:12:37.699Z,963.83
2023-01-09T02:13:10.667Z,963.63
2023-01-09T02:13:41.823Z,963.63
2023-01-09T02:14:14.887Z,963.93
2023-01-09T02:14:45.888Z,963.93
2023-01-09T02:15:19.613Z,963.83
2023-01-09T02:15:50.163Z,963.83
2023-01-09T02:16:22.644Z,963.73
2023-01-09T02:16:53.786Z,963.73
2023-01-09T02:17:26.776Z,963.53
2023-01-09T02:17:57.954Z,963.53
2023-01-09T02:18:30.775Z,963.73
2023-01-09T02:19:01.885Z,963.73
2023-01-09T02:19:34.803Z,963.53
2023-01-09T02:20:05.931Z,963.53
2023-01-09T02:20:38.768Z,963.53
2023-01-09T02:21:09.852Z,963.53
2023-01-09T02:21:42.555Z,963.53
2023-01-09T02:22:13.673Z,963.43
2023-01-09T02:22:46.746Z,963.43
2023-01-09T02:23:17.944Z,963.43
2023-01-09T02:23:50.920Z,963.43
2023-01-09T02:24:21.805Z,963.43
2023-01-09T02:24:54.774Z,963.43
2023-01-09T02:25:26.364Z,963.22
2023-01-09T02:25:58.901Z,963.22
2023-01-09T02:26:29.745Z,963.43
2023-01-09T02:27:02.796Z,963.43
2023-01-09T02:27:33.672Z,963.32
2023-01-09T02:28:06.732Z,963.22
2023-01-09T02:28:37.847Z,963.22
2023-01-09T02:29:11.033Z,963.02
2023-01-09T02:29:41.786Z,963.02
2023-01-09T02:30:15.628Z,963.22
2023-01-09T02:30:46.031Z,963.22
2023-01-09T02:31:18.851Z,963.32
2023-01-09T02:31:50.010Z,963.32
2023-01-09T02:32:22.674Z,963.22
2023-01-09T02:32:53.748Z,963.22
2023-01-09T02:33:26.605Z,963.32
2023-01-09T02:33:57.720Z,963.32
2023-01-09T02:34:30.532Z,963.12
2023-01-09T02:35:02.315Z,963.12
2023-01-09T02:35:34.832Z,963.63
2023-01-09T02:36:05.819Z,963.53
2023-01-09T02:36:38.823Z,963.53
2023-01-09T02:37:09.673Z,963.32
2023-01-09T02:37:42.807Z,963.32
2023-01-09T02:38:13.808Z,963.32
2023-01-09T02:38:46.548Z,963.32
2023-01-09T02:39:17.685Z,963.32
2023-01-09T02:39:50.757Z,963.32
2023-01-09T02:40:22.268Z,963.32
2023-01-09T02:40:54.585Z,963.32
2023-01-09T02:41:25.845Z,963.22
2023-01-09T02:41:58.852Z,963.22
2023-01-09T02:42:29.720Z,963.32
2023-01-09T02:43:02.653Z,963.32
2023-01-09T02:43:33.847Z,963.32
2023-01-09T02:44:06.592Z,963.12
2023-01-09T02:44:37.757Z,963.12
2023-01-09T02:45:11.440Z,963.12
2023-01-09T02:45:42.071Z,963.12
2023-01-09T02:46:14.813Z,963.22
2023-01-09T02:46:45.794Z,963.22
2023-01-09T02:47:18.864Z,963.12
2023-01-09T02:47:49.921Z,963.12
2023-01-09T02:48:22.525Z,962.92
2023-01-09T02:48:53.804Z,962.92
2023-01-09T02:49:26.530Z,963.02
2023-01-09T02:49:57.680Z,963.02
2023-01-09T02:50:30.992Z,963.12
2023-01-09T02:51:01.842Z,963.12
2023-01-09T02:51:34.746Z,963.32
2023-01-09T02:52:05.841Z,963.22
2023-01-09T02:52:38.666Z,963.22
2023-01-09T02:53:09.767Z,963.12
2023-01-09T02:53:42.574Z,963.12
2023-01-09T02:54:13.724Z,962.92
2023-01-09T02:54:46.613Z,962.92
2023-01-09T02:55:18.165Z,963.12
2023-01-09T02:55:50.838Z,963.12
2023-01-09T02:56:21.684Z,962.92
2023-01-09T02:56:54.867Z,962.92
2023-01-09T02:57:25.627Z,963.32
2023-01-09T02:57:58.689Z,963.32
2023-01-09T02:58:29.831Z,963.22
2023-01-09T02:59:02.785Z,963.22
2023-01-09T02:59:33.799Z,963.22
2023-01-09T03:00:07.988Z,963.12
2023-01-09T03:00:37.940Z,963.12
2023-01-09T03:01:10.821Z,963.32
2023-01-09T03:01:41.894Z,963.32
2023-01-09T03:02:14.939Z,963.12
2023-01-09T03:02:45.927Z,963.12
2023-01-09T03:03:18.771Z,963.22
2023-01-09T03:03:49.818Z,963.22
2023-01-09T03:04:22.800Z,963.22
2023-01-09T03:04:53.672Z,963.22
2023-01-09T03:05:27.077Z,963.12
2023-01-09T03:05:57.863Z,963.12
2023-01-09T03:06:30.637Z,963.12
2023-01-09T03:07:01.769Z,963.12
2023-01-09T03:07:34.955Z,963.22
2023-01-09T03:08:05.942Z,963.12
2023-01-09T03:08:38.697Z,963.12
2023-01-09T03:09:09.769Z,962.92
2023-01-09T03:09:42.702Z,962.92
2023-01-09T03:10:13.929Z,963.22
2023-01-09T03:10:46.534Z,963.22
2023-01-09T03:11:17.677Z,963.32
2023-01-09T03:11:50.565Z,963.32
2023-01-09T03:12:21.499Z,963.32
2023-01-09T03:12:54.675Z,963.32
2023-01-09T03:13:25.797Z,963.32
2023-01-09T03:13:58.683Z,963.32
2023-01-09T03:14:29.736Z,963.12
2023-01-09T03:15:04.087Z,963.12
2023-01-09T03:15:34.113Z,963.22
2023-01-09T03:16:06.823Z,963.12
2023-01-09T03:16:37.804Z,963.12
2023-01-09T03:17:10.759Z,963.22
2023-01-09T03:17:41.680Z,963.22
2023-01-09T03:18:14.777Z,963.32
2023-01-09T03:18:45.802Z,963.32
2023-01-09T03:19:18.717Z,963.22
2023-01-09T03:19:49.713Z,963.22
2023-01-09T03:20:23.245Z,963.12
2023-01-09T03:20:53.820Z,963.12
2023-01-09T03:21:26.549Z,962.92
2023-01-09T03:21:57.802Z,962.92
2023-01-09T03:22:30.769Z,962.92
2023-01-09T03:23:01.891Z,962.92
2023-01-09T03:23:34.772Z,963.22
2023-01-09T03:24:05.885Z,963.32
2023-01-09T03:24:38.628Z,963.32
2023-01-09T03:25:10.030Z,963.12
2023-01-09T03:25:42.499Z,963.12
2023-01-09T03:26:13.827Z,963.12
2023-01-09T03:26:46.707Z,963.12
2023-01-09T03:27:17.767Z,963.02
2023-01-09T03:27:50.907Z,963.02
2023-01-09T03:28:21.931Z,963.12
2023-01-09T03:28:54.585Z,963.12
2023-01-09T03:29:25.727Z,963.12
2023-01-09T03:29:58.531Z,963.12
2023-01-09T03:30:30.858Z,962.92
2023-01-09T03:31:02.595Z,962.92
2023-01-09T03:31:33.991Z,963.02
2023-01-09T03:32:06.999Z,962.82
2023-01-09T03:32:37.773Z,962.82
2023-01-09T03:33:10.569Z,962.92
2023-01-09T03:33:41.765Z,962.92
2023-01-09T03:34:14.730Z,963.12
2023-01-09T03:34:45.780Z,963.12
2023-01-09T03:35:18.844Z,963.12
2023-01-09T03:35:49.793Z,963.12
2023-01-09T03:36:22.554Z,963.22
2023-01-09T03:36:53.775Z,963.22
2023-01-09T03:37:26.779Z,963.22
2023-01-09T03:37:57.653Z,963.22
2023-01-09T03:38:30.914Z,963.12
2023-01-09T03:39:01.935Z,963.12
2023-01-09T03:39:34.528Z,963.32
2023-01-09T03:40:06.035Z,963.22
2023-01-09T03:40:38.542Z,963.22
2023-01-09T03:41:09.877Z,963.32
2023-01-09T03:41:42.411Z,963.32
2023-01-09T03:42:13.679Z,963.02
2023-01-09T03:42:46.740Z,963.02
2023-01-09T03:43:17.697Z,963.32
2023-01-09T03:43:50.628Z,963.32
2023-01-09T03:44:21.763Z,963.12
2023-01-09T03:44:54.775Z,963.12
2023-01-09T03:45:26.912Z,962.92
2023-01-09T03:45:59.075Z,962.92
2023-01-09T03:46:29.779Z,963.32
2023-01-09T03:47:02.582Z,963.32
2023-01-09T03:47:33.782Z,963.02
2023-01-09T03:48:06.864Z,963.12
2023-01-09T03:48:37.870Z,963.12
2023-01-09T03:49:10.703Z,963.12
2023-01-09T03:49:41.828Z,963.12
2023-01-09T03:50:14.848Z,963.32
2023-01-09T03:50:45.812Z,963.32
2023-01-09T03:51:18.717Z,963.12
2023-01-09T03:51:49.817Z,963.12
2023-01-09T03:52:22.492Z,963.22
2023-01-09T03:52:53.729Z,963.22
2023-01-09T03:53:26.770Z,963.43
2023-01-09T03:53:57.961Z,963.43
2023-01-09T03:54:30.598Z,963.22
2023-01-09T03:55:02.132Z,963.22
2023-01-09T03:55:34.943Z,963.12
2023-01-09T03:56:05.841Z,963.32
2023-01-09T03:56:38.510Z,963.32
2023-01-09T03:57:09.713Z,963.22
2023-01-09T03:57:42.967Z,963.22
2023-01-09T03:58:13.799Z,963.22
2023-01-09T03:58:46.505Z,963.22
2023-01-09T03:59:17.835Z,963.22
2023-01-09T03:59:50.627Z,963.22
2023-01-09T04:00:22.900Z,963.43
2023-01-09T04:00:54.902Z,963.43
2023-01-09T04:01:26.067Z,963.53
2023-01-09T04:01:58.879Z,963.53
2023-01-09T04:02:29.865Z,963.12
2023-01-09T04:03:02.962Z,963.12
2023-01-09T04:03:33.758Z,963.22
2023-01-09T04:04:06.727Z,963.43
2023-01-09T04:04:37.797Z,963.43
2023-01-09T04:05:10.950Z,963.53
2023-01-09T04:05:41.800Z,963.53
2023-01-09T04:06:14.680Z,963.43
2023-01-09T04:06:45.772Z,963.43
2023-01-09T04:07:18.738Z,963.53
2023-01-09T04:07:49.897Z,963.53
2023-01-09T04:08:22.787Z,963.32
2023-01-09T04:08:53.775Z,963.32
2023-01-09T04:09:26.743Z,963.73
2023-01-09T04:09:57.847Z,963.73
2023-01-09T04:10:30.788Z,963.43
2023-01-09T04:11:01.791Z,963.43
2023-01-09T04:11:35.003Z,963.63
2023-01-09T04:12:05.869Z,963.22
2023-01-09T04:12:38.605Z,963.22
2023-01-09T04:13:09.880Z,963.53
2023-01-09T04:13:42.796Z,963.53
2023-01-09T04:14:14.022Z,963.63
2023-01-09T04:14:46.867Z,963.63
2023-01-09T04:15:18.710Z,963.53
2023-01-09T04:15:50.949Z,963.53
2023-01-09T04:16:21.880Z,963.53
2023-01-09T04:16:54.731Z,963.53
2023-01-09T04:17:25.923Z,963.63
2023-01-09T04:17:58.895Z,963.63
2023-01-09T04:18:29.762Z,963.73
2023-01-09T04:19:02.665Z,963.73
2023-01-09T04:19:33.839Z,963.63
2023-01-09T04:20:06.682Z,963.63
2023-01-09T04:20:37.749Z,963.63
2023-01-09T04:21:10.585Z,963.63
2023-01-09T04:21:41.715Z,963.63
2023-01-09T04:22:14.571Z,963.53
2023-01-09T04:22:45.765Z,963.53
2023-01-09T04:23:18.990Z,963.53
2023-01-09T04:23:49.679Z,963.53
2023-01-09T04:24:22.797Z,963.53
2023-01-09T04:24:53.770Z,963.53
2023-01-09T04:25:27.053Z,963.63
2023-01-09T04:25:57.730Z,963.63
2023-01-09T04:26:30.619Z,963.63
2023-01-09T04:27:01.857Z,963.63
2023-01-09T04:27:34.720Z,963.63
2023-01-09T04:28:06.040Z,963.63
2023-01-09T04:28:38.652Z,963.63
2023-01-09T04:29:09.731Z,963.53
2023-01-09T04:29:42.935Z,963.53
2023-01-09T04:30:14.724Z,963.53
2023-01-09T04:30:46.771Z,963.53
2023-01-09T04:31:17.773Z,963.53
2023-01-09T04:31:50.524Z,963.53
2023-01-09T04:32:21.898Z,963.53
2023-01-09T04:32:54.629Z,963.53
2023-01-09T04:33:25.712Z,963.53
2023-01-09T04:33:58.595Z,963.53
2023-01-09T04:34:29.947Z,963.83
2023-01-09T04:35:02.949Z,963.83
2023-01-09T04:35:33.860Z,963.63
2023-01-09T04:36:06.751Z,963.63
2023-01-09T04:36:37.729Z,963.63
2023-01-09T04:37:10.723Z,963.83
2023-01-09T04:37:41.831Z,963.83
2023-01-09T04:38:14.937Z,963.73
2023-01-09T04:38:45.831Z,963.73
2023-01-09T04:39:18.792Z,963.93
2023-01-09T04:39:49.948Z,963.93
2023-01-09T04:40:23.091Z,963.73
2023-01-09T04:40:53.874Z,963.73
2023-01-09T04:41:26.674Z,963.83
2023-01-09T04:41:57.994Z,963.83
2023-01-09T04:42:30.813Z,963.93
2023-01-09T04:43:01.897Z,963.93
2023-01-09T04:43:34.691Z,963.93
2023-01-09T04:44:05.812Z,963.73
2023-01-09T04:44:38.618Z,963.73
2023-01-09T04:45:10.755Z,963.93
2023-01-09T04:45:42.688Z,963.93
2023-01-09T04:46:13.864Z,964.04
2023-01-09T04:46:46.636Z,964.04
2023-01-09T04:47:17.880Z,964.04
2023-01-09T04:47:51.072Z,964.04
2023-01-09T04:48:21.787Z,963.93
2023-01-09T04:48:54.584Z,963.93
2023-01-09T04:49:25.948Z,963.93
2023-01-09T04:49:58.436Z,963.93
2023-01-09T04:50:31.429Z,964.04
2023-01-09T04:51:02.665Z,964.04
2023-01-09T04:51:33.771Z,963.93
2023-01-09T04:52:06.915Z,963.63
2023-01-09T04:52:39.077Z,963.63
2023-01-09T04:53:10.683Z,963.93
2023-01-09T04:53:41.727Z,963.93
2023-01-09T04:54:14.832Z,963.93
2023-01-09T04:54:45.900Z,963.93
2023-01-09T04:55:18.817Z,963.83
2023-01-09T04:55:49.845Z,963.83
2023-01-09T04:56:22.657Z,963.93
2023-01-09T04:56:53.864Z,963.93
2023-01-09T04:57:26.683Z,963.93
2023-01-09T04:57:57.830Z,963.93
2023-01-09T04:58:30.701Z,963.73
2023-01-09T04:59:01.703Z,963.73
2023-01-09T04:59:34.481Z,964.04
2023-01-09T05:00:07.388Z,964.14
2023-01-09T05:00:38.619Z,964.14
2023-01-09T05:01:09.791Z,963.93
2023-01-09T05:01:42.674Z,963.93
2023-01-09T05:02:13.892Z,964.04
2023-01-09T05:02:46.739Z,964.04
2023-01-09T05:03:17.835Z,963.83
2023-01-09T05:03:50.693Z,963.83
2023-01-09T05:04:21.882Z,963.93
2023-01-09T05:04:54.585Z,963.93
2023-01-09T05:05:26.303Z,963.93
2023-01-09T05:05:58.653Z,963.93
2023-01-09T05:06:29.778Z,964.04
2023-01-09T05:07:02.790Z,964.04
2023-01-09T05:07:33.735Z,963.93
2023-01-09T05:08:06.674Z,963.93
2023-01-09T05:08:37.823Z,963.93
2023-01-09T05:09:11.788Z,963.93
2023-01-09T05:09:41.739Z,963.93
2023-01-09T05:10:15.071Z,964.04
2023-01-09T05:10:45.775Z,964.04
2023-01-09T05:11:18.536Z,964.04
2023-01-09T05:11:49.850Z,964.04
2023-01-09T05:12:22.861Z,963.93
2023-01-09T05:12:53.850Z,963.93
2023-01-09T05:13:26.799Z,964.04
2023-01-09T05:13:57.882Z,964.04
2023-01-09T05:14:30.645Z,964.14
2023-01-09T05:15:03.191Z,964.14
2023-01-09T05:15:35.149Z,964.14
2023-01-09T05:16:05.983Z,964.14
2023-01-09T05:16:38.592Z,964.14
2023-01-09T05:17:09.772Z,964.24
2023-01-09T05:17:42.909Z,964.24
2023-01-09T05:18:13.841Z,963.83
2023-01-09T05:18:46.680Z,963.83
2023-01-09T05:19:17.847Z,964.14
2023-01-09T05:19:50.713Z,964.14
2023-01-09T05:20:21.816Z,964.04
2023-01-09T05:20:54.723Z,964.04
2023-01-09T05:21:25.891Z,964.14
2023-01-09T05:21:58.600Z,964.14
2023-01-09T05:22:29.788Z,964.24
2023-01-09T05:23:02.734Z,964.24
2023-01-09T05:23:33.950Z,964.14
2023-01-09T05:24:06.470Z,964.24
2023-01-09T05:24:37.775Z,964.24
2023-01-09T05:25:10.975Z,964.24
2023-01-09T05:25:41.684Z,964.24
2023-01-09T05:26:14.637Z,964.14
2023-01-09T05:26:45.815Z,964.14
2023-01-09T05:27:18.771Z,964.41
2023-01-09T05:27:49.728Z,964.41
2023-01-09T05:28:22.778Z,964.24
2023-01-09T05:28:53.872Z,964.24
2023-01-09T05:29:26.371Z,964.51
2023-01-09T05:29:57.835Z,964.51
2023-01-09T05:30:32.401Z,964.24
2023-01-09T05:31:02.033Z,964.24
2023-01-09T05:31:34.884Z,964.51
2023-01-09T05:32:05.921Z,964.51
2023-01-09T05:32:38.740Z,964.51
2023-01-09T05:33:09.826Z,964.41
2023-01-09T05:33:42.544Z,964.41
2023-01-09T05:34:13.888Z,964.34
2023-01-09T05:34:46.741Z,964.34
2023-01-09T05:35:18.121Z,964.41
2023-01-09T05:35:50.782Z,964.41
2023-01-09T05:36:22.005Z,964.51
2023-01-09T05:36:54.819Z,964.51
2023-01-09T05:37:25.755Z,964.41
2023-01-09T05:37:58.813Z,964.41
2023-01-09T05:38:29.742Z,964.71
2023-01-09T05:39:02.811Z,964.71
2023-01-09T05:39:33.794Z,964.34
2023-01-09T05:40:07.098Z,964.51
2023-01-09T05:40:40.348Z,964.51
2023-01-09T05:41:10.744Z,964.61
2023-01-09T05:41:41.990Z,964.61
2023-01-09T05:42:14.738Z,964.51
2023-01-09T05:42:45.874Z,964.51
2023-01-09T05:43:18.919Z,964.61
2023-01-09T05:43:50.059Z,964.61
2023-01-09T05:44:22.478Z,964.71
2023-01-09T05:44:53.952Z,964.71
2023-01-09T05:45:28.335Z,964.51
2023-01-09T05:45:58.064Z,964.51
2023-01-09T05:46:30.992Z,964.51
2023-01-09T05:47:02.930Z,964.51
2023-01-09T05:47:35.091Z,964.51
2023-01-09T05:48:06.089Z,964.61
2023-01-09T05:48:38.766Z,964.61
2023-01-09T05:49:09.901Z,964.61
2023-01-09T05:49:43.582Z,964.61
2023-01-09T05:50:14.356Z,964.61
2023-01-09T05:50:46.877Z,964.61
2023-01-09T05:51:17.731Z,964.41
2023-01-09T05:51:50.898Z,964.41
2023-01-09T05:52:21.967Z,964.51
2023-01-09T05:52:54.734Z,964.51
2023-01-09T05:53:25.730Z,964.61
2023-01-09T05:53:58.644Z,964.61
2023-01-09T05:54:29.938Z,964.41
2023-01-09T05:55:03.774Z,964.41
2023-01-09T05:55:33.846Z,964.71
2023-01-09T05:56:06.756Z,964.71
2023-01-09T05:56:37.701Z,964.71
2023-01-09T05:57:10.751Z,964.51
2023-01-09T05:57:41.853Z,964.51
2023-01-09T05:58:14.845Z,964.71
2023-01-09T05:58:45.788Z,964.71
2023-01-09T05:59:02.018Z,964.71
2023-01-09T05:59:33.818Z,964.71
2023-01-09T06:00:07.340Z,964.51
2023-01-09T06:00:37.968Z,964.51
2023-01-09T06:01:09.853Z,964.92
2023-01-09T06:01:42.702Z,964.92
2023-01-09T06:02:14.027Z,964.92
2023-01-09T06:02:46.702Z,964.92
2023-01-09T06:03:17.940Z,964.81
2023-01-09T06:03:50.762Z,964.81
2023-01-09T06:04:22.026Z,965.12
2023-01-09T06:04:54.716Z,965.12
2023-01-09T06:05:26.115Z,964.81
2023-01-09T06:05:58.740Z,964.81
2023-01-09T06:06:29.835Z,964.81
2023-01-09T06:07:02.749Z,964.81
2023-01-09T06:07:33.889Z,964.92
2023-01-09T06:08:06.882Z,964.92
2023-01-09T06:08:37.844Z,964.92
2023-01-09T06:09:10.736Z,964.92
2023-01-09T06:10:15.003Z,964.81
2023-01-09T06:10:45.847Z,964.81
2023-01-09T06:11:18.888Z,964.92
2023-01-09T06:11:49.816Z,964.92
2023-01-09T06:12:22.631Z,964.81
2023-01-09T06:12:53.842Z,964.81
2023-01-09T06:13:26.816Z,964.92
2023-01-09T06:13:57.757Z,964.92
2023-01-09T06:14:30.803Z,965.02
2023-01-09T06:15:03.491Z,965.02
2023-01-09T06:15:35.011Z,965.22
2023-01-09T06:16:05.870Z,965.02
2023-01-09T06:16:38.806Z,965.02
2023-01-09T06:17:09.823Z,964.92
2023-01-09T06:17:42.716Z,964.92
2023-01-09T06:18:13.871Z,965.12
2023-01-09T06:18:46.472Z,965.12
2023-01-09T06:19:17.761Z,965.22
2023-01-09T06:19:50.577Z,965.22
2023-01-09T06:20:22.194Z,965.12
2023-01-09T06:20:54.660Z,965.12
2023-01-09T06:21:25.770Z,965.12
2023-01-09T06:21:58.681Z,965.12
2023-01-09T06:22:29.736Z,965.12
2023-01-09T06:23:02.693Z,965.12
2023-01-09T06:23:33.912Z,964.92
2023-01-09T06:24:06.572Z,965.12
2023-01-09T06:24:37.789Z,965.12
2023-01-09T06:25:10.881Z,965.02
2023-01-09T06:25:41.905Z,965.02
2023-01-09T06:26:14.467Z,965.02
2023-01-09T06:26:45.814Z,965.02
2023-01-09T06:27:18.972Z,965.02
2023-01-09T06:27:50.057Z,965.02
2023-01-09T06:28:23.122Z,965.32
2023-01-09T06:28:53.815Z,965.32
2023-01-09T06:29:26.592Z,965.12
2023-01-09T06:29:57.920Z,965.12
2023-01-09T06:30:31.875Z,965.12
2023-01-09T06:31:02.017Z,965.12
2023-01-09T06:31:34.918Z,965.12
2023-01-09T06:32:05.767Z,965.12
2023-01-09T06:32:38.981Z,965.12
2023-01-09T06:33:09.886Z,965.22
2023-01-09T06:33:42.570Z,965.22
2023-01-09T06:34:13.752Z,965.32
2023-01-09T06:34:46.774Z,965.32
2023-01-09T06:35:18.157Z,965.22
2023-01-09T06:35:50.686Z,965.22
2023-01-09T06:36:22.621Z,965.42
2023-01-09T06:36:54.562Z,965.42
2023-01-09T06:37:25.834Z,965.32
2023-01-09T06:37:58.639Z,965.32
2023-01-09T06:38:29.882Z,965.42
2023-01-09T06:39:02.642Z,965.42